Lone Rock, IA

11:16 PM CST on December 08, 2016 (GMT -0600)
Farm Acreage | | Change Station

Elev 1130 ft 42.96 °N, 94.29 °W | Updated 3 minutes ago

Overcast
Overcast
16.4 °F
Feels Like 16 °F
N
2.0
Wind Variable Wind from NW
Gusts 4.0 mph

Today
High -- | Low -- °F
--% Chance of Precip.
Yesterday
High -- | Low -- °F
Precip. -- in
Pressure 30.54 in
Visibility 10.0 miles
Clouds Overcast 1900 ft
Windchill 16 °F
Dew Point 12 °F
Humidity 84%
Rainfall 0.00 in
Snow Depth Not available.
7:37 AM 4:41 PM
Waxing Gibbous, 70% visible
METAR KAXA 090455Z AUTO 34011KT 10SM -SN OVC019 M09/M11 A3054 RMK AO2
Pressure 30.54 in
Visibility 10.0 miles
Clouds Overcast 1900 ft
Windchill 16 °F
Dew Point 12 °F
Humidity 84%
Rainfall 0.00 in
Snow Depth Not available.
7:37 AM 4:41 PM
Waxing Gibbous, 70% visible
METAR KAXA 090455Z AUTO 34011KT 10SM -SN OVC019 M09/M11 A3054 RMK AO2

10-Day Weather Forecast

Almanac

Astronomy

Dec. 08, 2016 Rise Set
Actual Time
Civil Twilight
Nautical Twilight
Astronomical Twilight
Moon
Length of Visible Light
Length of Day
Tomorrow will be .
, % of the Moon is Illuminated

Today's Extremes

State Highs State Lows

Community

WunderPhotos

Upload Photos

1,956,370 photos uploaded!

WunderBlog® & News

Nearby

Air Quality

  Air Quality AQ Index Pollutant
Not available.

Snow Depth

Station Depth Elevation

Earthquake Activity

City Distance Mag. Time & Date
Minimum magnitude displayed is 2.5.

Coastal Water Temperatures

Place Temperature

Stations

Nearby Weather Stations

Station Location Temp. Windchill Dew Point Humidity Wind Precip. Elev Updated Type
                   

Watches & Warnings

There are currently no watches in effect.